createdAt,value
2023-10-30T00:00:07.074Z,99683.94
2023-10-30T00:05:10.616Z,99684.25
2023-10-30T00:10:12.659Z,99686.28
2023-10-30T00:15:16.230Z,99672.47
2023-10-30T00:20:18.471Z,99676.91
2023-10-30T00:25:20.661Z,99697.25
2023-10-30T00:30:24.173Z,99705.44
2023-10-30T00:35:26.292Z,99705.03
2023-10-30T00:40:28.598Z,99708.38
2023-10-30T00:45:32.153Z,99723.28
2023-10-30T00:50:34.314Z,99729.41
2023-10-30T00:55:38.044Z,99738.66
2023-10-30T01:00:41.447Z,99729.53
2023-10-30T01:05:43.960Z,99741.25
2023-10-30T01:10:46.185Z,99734.25
2023-10-30T01:15:52.741Z,99735.88
2023-10-30T01:20:54.888Z,99750.22
2023-10-30T01:25:56.854Z,99748.38
2023-10-30T01:31:00.349Z,99760.84
2023-10-30T01:36:02.464Z,99754.63
2023-10-30T01:41:04.795Z,99772.56
2023-10-30T01:46:08.554Z,99773.56
2023-10-30T01:51:13.008Z,99802.38
2023-10-30T01:56:16.072Z,99802.69
2023-10-30T02:01:19.755Z,99798.31
2023-10-30T02:06:22.242Z,99798.41
2023-10-30T02:11:24.359Z,99798.53
2023-10-30T02:16:27.982Z,99802.81
2023-10-30T02:21:30.173Z,99795.03
2023-10-30T02:26:33.752Z,99793.44
2023-10-30T02:31:35.824Z,99784.56
2023-10-30T02:36:38.025Z,99796.16
2023-10-30T02:41:41.649Z,99791.06
2023-10-30T02:46:43.730Z,99788.44
2023-10-30T02:51:45.742Z,99804.09
2023-10-30T02:56:49.342Z,99801.34
2023-10-30T03:01:51.804Z,99809.84
2023-10-30T03:06:54.481Z,99810.00
2023-10-30T03:11:58.167Z,99804.69
2023-10-30T03:17:00.369Z,99794.31
2023-10-30T03:22:02.306Z,99800.22
2023-10-30T03:27:06.249Z,99807.38
2023-10-30T03:32:08.347Z,99807.44
2023-10-30T03:37:10.628Z,99797.56
2023-10-30T03:42:14.157Z,99811.91
2023-10-30T03:47:16.289Z,99806.56
2023-10-30T03:52:18.482Z,99805.25
2023-10-30T03:57:22.365Z,99807.09
2023-10-30T04:02:24.710Z,99809.03
2023-10-30T04:07:27.048Z,99807.50
2023-10-30T04:12:30.992Z,99804.84
2023-10-30T04:17:33.016Z,99818.13
2023-10-30T04:22:35.142Z,99824.44
2023-10-30T04:27:38.647Z,99812.34
2023-10-30T04:32:40.843Z,99807.72
2023-10-30T04:37:42.917Z,99819.25
2023-10-30T04:42:48.304Z,99822.00
2023-10-30T04:47:50.336Z,99816.00
2023-10-30T04:52:52.625Z,99818.81
2023-10-30T04:57:56.182Z,99824.22
2023-10-30T05:02:58.310Z,99842.84
2023-10-30T05:08:00.754Z,99834.91
2023-10-30T05:13:04.276Z,99846.34
2023-10-30T05:18:06.318Z,99840.28
2023-10-30T05:23:08.418Z,99831.78
2023-10-30T05:28:12.056Z,99838.75
2023-10-30T05:33:14.289Z,99851.91
2023-10-30T05:38:16.442Z,99843.84
2023-10-30T05:43:19.943Z,99858.81
2023-10-30T05:48:22.139Z,99873.91
2023-10-30T05:53:23.919Z,99874.41
2023-10-30T05:58:27.450Z,99866.38
2023-10-30T06:03:29.612Z,99861.41
2023-10-30T06:08:31.934Z,99870.16
2023-10-30T06:13:35.493Z,99878.09
2023-10-30T06:18:37.721Z,99869.94
2023-10-30T06:23:39.906Z,99882.13
2023-10-30T06:28:43.348Z,99886.59
2023-10-30T06:33:46.509Z,99902.25
2023-10-30T06:38:48.539Z,99889.41
2023-10-30T06:43:52.130Z,99887.47
2023-10-30T06:48:54.228Z,99888.03
2023-10-30T06:53:56.298Z,99904.00
2023-10-30T06:58:59.858Z,99899.22
2023-10-30T07:04:02.028Z,99889.81
2023-10-30T07:09:04.751Z,99901.91
2023-10-30T07:14:08.622Z,99924.41
2023-10-30T07:19:10.723Z,99929.56
2023-10-30T07:24:12.908Z,99927.03
2023-10-30T07:29:16.267Z,99928.66
2023-10-30T07:34:18.682Z,99937.69
2023-10-30T07:39:20.876Z,99946.22
2023-10-30T07:44:24.631Z,99941.66
2023-10-30T07:49:26.776Z,99940.41
2023-10-30T07:54:28.919Z,99929.44
2023-10-30T07:59:32.392Z,99933.53
2023-10-30T08:04:34.590Z,99939.53
2023-10-30T08:09:37.075Z,99960.94
2023-10-30T08:14:40.686Z,99958.22
2023-10-30T08:19:42.930Z,99952.38
2023-10-30T08:24:45.094Z,99950.97
2023-10-30T08:29:48.779Z,99945.66
2023-10-30T08:34:51.204Z,99956.63
2023-10-30T08:39:53.912Z,99955.50
2023-10-30T08:44:57.382Z,99950.47
2023-10-30T08:49:59.464Z,99967.19
2023-10-30T08:55:04.232Z,99956.72
2023-10-30T09:00:08.922Z,99951.75
2023-10-30T09:05:11.169Z,99938.94
2023-10-30T09:10:13.738Z,99935.47
2023-10-30T09:15:17.464Z,99925.41
2023-10-30T09:20:19.489Z,99914.00
2023-10-30T09:25:21.842Z,99928.69
2023-10-30T09:30:25.351Z,99947.75
2023-10-30T09:35:27.633Z,99944.50
2023-10-30T09:40:29.716Z,99956.06
2023-10-30T09:45:37.164Z,99958.25
2023-10-30T09:50:40.503Z,99956.22
2023-10-30T09:55:43.706Z,99955.97
2023-10-30T10:00:47.647Z,99952.38
2023-10-30T10:06:00.860Z,99971.06
2023-10-30T10:11:04.194Z,99988.31
2023-10-30T10:16:08.301Z,99989.19
2023-10-30T10:21:10.487Z,99984.16
2023-10-30T10:26:12.635Z,99982.34
2023-10-30T10:31:18.006Z,99980.25
2023-10-30T10:36:20.112Z,99977.72
2023-10-30T10:41:22.433Z,99970.56
2023-10-30T10:46:26.470Z,99969.97
2023-10-30T10:51:35.865Z,99992.63
2023-10-30T10:56:39.291Z,99982.53
2023-10-30T11:01:46.973Z,99980.16
2023-10-30T11:06:55.682Z,99983.78
2023-10-30T11:12:11.745Z,99976.94
2023-10-30T11:17:16.775Z,99961.63
2023-10-30T11:22:39.622Z,99951.25
2023-10-30T11:27:42.678Z,99946.59
2023-10-30T11:32:57.944Z,99951.75
2023-10-30T11:38:00.258Z,99950.41
2023-10-30T11:43:08.666Z,99958.69
2023-10-30T11:48:13.997Z,99946.47
2023-10-30T11:53:16.795Z,99948.91
2023-10-30T11:58:20.106Z,99943.84
2023-10-30T12:03:23.770Z,99935.84
2023-10-30T12:08:26.174Z,99938.34
2023-10-30T12:13:28.770Z,99942.94
2023-10-30T12:18:32.394Z,99938.22
2023-10-30T12:23:34.426Z,99939.00
2023-10-30T12:28:36.862Z,99941.53
2023-10-30T12:33:40.612Z,99928.50
2023-10-30T12:38:42.707Z,99932.09
2023-10-30T12:43:44.849Z,99918.25
2023-10-30T12:48:48.009Z,99922.19
2023-10-30T12:53:51.373Z,99910.16
2023-10-30T12:58:54.128Z,99906.41
2023-10-30T13:03:57.697Z,99895.09
2023-10-30T13:08:59.886Z,99896.59
2023-10-30T13:14:02.178Z,99896.94
2023-10-30T13:19:05.869Z,99890.13
2023-10-30T13:24:08.256Z,99896.75
2023-10-30T13:29:10.330Z,99879.44
2023-10-30T13:34:13.970Z,99869.72
2023-10-30T13:39:16.201Z,99866.72
2023-10-30T13:44:18.442Z,99860.56
2023-10-30T13:49:22.193Z,99841.63
2023-10-30T13:54:24.342Z,99827.28
2023-10-30T13:59:26.611Z,99827.69
2023-10-30T14:04:31.170Z,99822.03
2023-10-30T14:09:33.543Z,99830.72
2023-10-30T14:14:35.946Z,99818.75
2023-10-30T14:19:39.659Z,99815.41
2023-10-30T14:24:41.838Z,99815.13
2023-10-30T14:29:44.048Z,99798.47
2023-10-30T14:34:47.905Z,99777.09
2023-10-30T14:39:50.350Z,99770.47
2023-10-30T14:44:52.653Z,99777.13
2023-10-30T14:49:56.094Z,99780.78
2023-10-30T14:54:58.532Z,99773.06
2023-10-30T15:00:00.570Z,99772.13
2023-10-30T15:05:04.824Z,99770.25
2023-10-30T15:10:08.398Z,99758.50
2023-10-30T15:15:10.902Z,99766.13
2023-10-30T15:20:14.517Z,99745.69
2023-10-30T15:25:16.882Z,99753.75
2023-10-30T15:30:19.083Z,99757.03
2023-10-30T15:35:23.126Z,99754.50
2023-10-30T15:40:25.187Z,99764.72
2023-10-30T15:45:27.255Z,99761.16
2023-10-30T15:50:30.826Z,99762.25
2023-10-30T16:00:39.933Z,99753.38
2023-10-30T16:05:47.517Z,99747.34
2023-10-30T16:16:11.650Z,99733.66
2023-10-30T16:21:16.760Z,99729.13
2023-10-30T16:26:19.291Z,99723.84
2023-10-30T16:31:21.598Z,99714.94
2023-10-30T16:36:25.339Z,99705.50
2023-10-30T16:41:27.556Z,99678.00
2023-10-30T16:46:29.762Z,99675.63
2023-10-30T16:51:33.473Z,99668.19
2023-10-30T16:56:35.581Z,99678.09
2023-10-30T17:01:37.720Z,99664.19
2023-10-30T17:06:41.331Z,99678.69
2023-10-30T17:11:43.459Z,99659.94
2023-10-30T17:16:46.029Z,99649.94
2023-10-30T17:21:50.001Z,99637.59
2023-10-30T17:26:52.127Z,99642.25
2023-10-30T17:31:54.390Z,99638.94
2023-10-30T17:36:57.878Z,99644.56
2023-10-30T17:42:00.006Z,99639.19
2023-10-30T17:47:02.202Z,99633.41
2023-10-30T17:52:05.956Z,99621.84
2023-10-30T17:57:08.184Z,99603.78
2023-10-30T18:02:10.372Z,99610.56
2023-10-30T18:07:13.981Z,99612.31
2023-10-30T18:12:16.216Z,99593.03
2023-10-30T18:17:18.565Z,99573.34
2023-10-30T18:22:22.068Z,99568.84
2023-10-30T18:27:24.123Z,99561.22
2023-10-30T18:32:26.355Z,99551.97
2023-10-30T18:37:30.650Z,99546.13
2023-10-30T18:42:33.522Z,99518.06
2023-10-30T18:47:35.849Z,99517.91
2023-10-30T18:52:39.567Z,99518.41
2023-10-30T18:57:41.876Z,99516.47
2023-10-30T19:02:44.037Z,99507.34
2023-10-30T19:07:48.300Z,99503.88
2023-10-30T19:12:50.550Z,99489.47
2023-10-30T19:17:52.937Z,99480.81
2023-10-30T19:22:56.456Z,99479.19
2023-10-30T19:27:58.586Z,99469.41
2023-10-30T19:33:00.767Z,99466.09
2023-10-30T19:38:04.459Z,99463.84
2023-10-30T19:43:06.631Z,99463.09
2023-10-30T19:48:08.813Z,99461.13
2023-10-30T19:53:12.513Z,99462.69
2023-10-30T19:58:14.485Z,99454.38
2023-10-30T20:03:16.731Z,99457.00
2023-10-30T20:08:20.268Z,99455.06
2023-10-30T20:13:22.530Z,99449.63
2023-10-30T20:18:25.140Z,99450.69
2023-10-30T20:23:28.653Z,99435.88
2023-10-30T20:28:30.838Z,99425.69
2023-10-30T20:33:33.214Z,99411.72
2023-10-30T20:38:36.766Z,99398.63
2023-10-30T20:43:38.934Z,99398.00
2023-10-30T20:48:41.286Z,99378.03
2023-10-30T20:53:44.669Z,99347.34
2023-10-30T20:58:46.782Z,99309.94
2023-10-30T21:03:48.854Z,99332.44
2023-10-30T21:08:52.365Z,99331.69
2023-10-30T21:13:54.764Z,99325.78
2023-10-30T21:18:57.092Z,99303.78
2023-10-30T21:24:00.910Z,99299.75
2023-10-30T21:29:02.957Z,99291.59
2023-10-30T21:34:05.922Z,99292.13
2023-10-30T21:39:09.339Z,99279.41
2023-10-30T21:44:11.876Z,99251.69
2023-10-30T21:49:14.091Z,99285.41
2023-10-30T21:54:17.587Z,99290.75
2023-10-30T21:59:19.755Z,99280.34
2023-10-30T22:04:22.005Z,99272.03
2023-10-30T22:09:25.526Z,99262.00
2023-10-30T22:14:27.589Z,99255.00
2023-10-30T22:19:29.990Z,99279.34
2023-10-30T22:24:33.527Z,99250.69
2023-10-30T22:29:35.621Z,99201.13
2023-10-30T22:34:37.764Z,99207.19
2023-10-30T22:39:41.236Z,99178.41
2023-10-30T22:44:43.343Z,99157.13
2023-10-30T22:49:45.488Z,99146.78
2023-10-30T22:54:48.935Z,99140.56
2023-10-30T22:59:51.072Z,99144.03
2023-10-30T23:04:53.462Z,99107.16
2023-10-30T23:09:57.081Z,99103.59
2023-10-30T23:14:59.439Z,99131.38
2023-10-30T23:20:01.769Z,99120.06
2023-10-30T23:25:06.706Z,99119.88
2023-10-30T23:30:09.977Z,99091.34
2023-10-30T23:35:12.129Z,99077.84
2023-10-30T23:40:15.892Z,99061.59
2023-10-30T23:45:18.022Z,99075.97
2023-10-30T23:50:20.218Z,99082.59
2023-10-30T23:55:23.894Z,99087.50
